sensor_id;sensor_type;location;lat;lon;timestamp;P1;durP1;ratioP1;P2;durP2;ratioP2
7080;SDS011;3582;51.506;11.948;2023-02-11T00:00:39;48.33;;;30.98;;
7080;SDS011;3582;51.506;11.948;2023-02-11T00:03:05;49.35;;;28.20;;
7080;SDS011;3582;51.506;11.948;2023-02-11T00:05:31;49.15;;;30.48;;
7080;SDS011;3582;51.506;11.948;2023-02-11T00:07:57;56.37;;;32.53;;
7080;SDS011;3582;51.506;11.948;2023-02-11T00:10:23;52.80;;;32.17;;
7080;SDS011;3582;51.506;11.948;2023-02-11T00:12:49;42.23;;;30.27;;
7080;SDS011;3582;51.506;11.948;2023-02-11T00:15:14;52.97;;;31.77;;
7080;SDS011;3582;51.506;11.948;2023-02-11T00:17:40;48.37;;;29.47;;
7080;SDS011;3582;51.506;11.948;2023-02-11T00:20:07;56.83;;;33.10;;
7080;SDS011;3582;51.506;11.948;2023-02-11T00:22:33;44.95;;;28.52;;
7080;SDS011;3582;51.506;11.948;2023-02-11T00:24:59;54.10;;;29.07;;
7080;SDS011;3582;51.506;11.948;2023-02-11T00:27:24;49.73;;;32.40;;
7080;SDS011;3582;51.506;11.948;2023-02-11T00:29:50;59.50;;;31.80;;
7080;SDS011;3582;51.506;11.948;2023-02-11T00:32:16;47.63;;;31.27;;
7080;SDS011;3582;51.506;11.948;2023-02-11T00:34:42;45.33;;;30.97;;
7080;SDS011;3582;51.506;11.948;2023-02-11T00:37:08;43.23;;;30.33;;
7080;SDS011;3582;51.506;11.948;2023-02-11T00:39:36;47.08;;;31.65;;
7080;SDS011;3582;51.506;11.948;2023-02-11T00:42:01;45.87;;;28.00;;
7080;SDS011;3582;51.506;11.948;2023-02-11T00:44:27;60.42;;;33.05;;
7080;SDS011;3582;51.506;11.948;2023-02-11T00:46:53;42.43;;;28.30;;
7080;SDS011;3582;51.506;11.948;2023-02-11T00:49:19;50.87;;;31.43;;
7080;SDS011;3582;51.506;11.948;2023-02-11T00:51:45;48.78;;;30.23;;
7080;SDS011;3582;51.506;11.948;2023-02-11T00:54:11;44.73;;;30.97;;
7080;SDS011;3582;51.506;11.948;2023-02-11T00:56:37;49.55;;;34.45;;
7080;SDS011;3582;51.506;11.948;2023-02-11T00:59:03;51.20;;;31.10;;
7080;SDS011;3582;51.506;11.948;2023-02-11T01:01:29;50.63;;;33.90;;
7080;SDS011;3582;51.506;11.948;2023-02-11T01:03:55;47.70;;;29.37;;
7080;SDS011;3582;51.506;11.948;2023-02-11T01:06:21;42.83;;;29.13;;
7080;SDS011;3582;51.506;11.948;2023-02-11T01:08:47;49.63;;;32.50;;
7080;SDS011;3582;51.506;11.948;2023-02-11T01:11:14;45.03;;;33.33;;
7080;SDS011;3582;51.506;11.948;2023-02-11T01:13:40;50.17;;;31.95;;
7080;SDS011;3582;51.506;11.948;2023-02-11T01:16:07;43.60;;;30.40;;
7080;SDS011;3582;51.506;11.948;2023-02-11T01:18:33;45.70;;;29.52;;
7080;SDS011;3582;51.506;11.948;2023-02-11T01:20:59;46.88;;;29.25;;
7080;SDS011;3582;51.506;11.948;2023-02-11T01:23:25;41.77;;;28.77;;
7080;SDS011;3582;51.506;11.948;2023-02-11T01:25:51;53.33;;;32.83;;
7080;SDS011;3582;51.506;11.948;2023-02-11T01:28:19;44.92;;;29.88;;
7080;SDS011;3582;51.506;11.948;2023-02-11T01:30:45;52.75;;;31.83;;
7080;SDS011;3582;51.506;11.948;2023-02-11T01:33:11;50.40;;;30.90;;
7080;SDS011;3582;51.506;11.948;2023-02-11T01:35:38;45.33;;;30.35;;
7080;SDS011;3582;51.506;11.948;2023-02-11T01:38:05;54.42;;;32.67;;
7080;SDS011;3582;51.506;11.948;2023-02-11T01:40:31;47.13;;;30.98;;
7080;SDS011;3582;51.506;11.948;2023-02-11T01:42:57;46.00;;;30.10;;
7080;SDS011;3582;51.506;11.948;2023-02-11T01:48:08;51.67;;;33.63;;
7080;SDS011;3582;51.506;11.948;2023-02-11T01:50:36;49.08;;;31.27;;
7080;SDS011;3582;51.506;11.948;2023-02-11T01:53:03;48.75;;;30.50;;
7080;SDS011;3582;51.506;11.948;2023-02-11T01:55:47;50.17;;;30.80;;
7080;SDS011;3582;51.506;11.948;2023-02-11T01:58:33;47.20;;;29.35;;
7080;SDS011;3582;51.506;11.948;2023-02-11T02:01:02;43.78;;;28.92;;
7080;SDS011;3582;51.506;11.948;2023-02-11T02:03:29;48.28;;;31.15;;
7080;SDS011;3582;51.506;11.948;2023-02-11T02:08:35;46.35;;;29.35;;
7080;SDS011;3582;51.506;11.948;2023-02-11T02:11:03;47.60;;;30.48;;
7080;SDS011;3582;51.506;11.948;2023-02-11T02:13:30;47.08;;;31.10;;
7080;SDS011;3582;51.506;11.948;2023-02-11T02:15:58;43.17;;;29.17;;
7080;SDS011;3582;51.506;11.948;2023-02-11T02:21:12;53.17;;;31.85;;
7080;SDS011;3582;51.506;11.948;2023-02-11T02:34:18;48.40;;;30.38;;
7080;SDS011;3582;51.506;11.948;2023-02-11T02:37:03;42.63;;;29.20;;
7080;SDS011;3582;51.506;11.948;2023-02-11T02:39:32;49.42;;;32.80;;
7080;SDS011;3582;51.506;11.948;2023-02-11T02:41:59;44.47;;;29.90;;
7080;SDS011;3582;51.506;11.948;2023-02-11T02:44:25;52.17;;;30.45;;
7080;SDS011;3582;51.506;11.948;2023-02-11T02:46:51;51.17;;;32.87;;
7080;SDS011;3582;51.506;11.948;2023-02-11T02:49:17;44.33;;;31.17;;
7080;SDS011;3582;51.506;11.948;2023-02-11T02:51:57;44.53;;;29.23;;
7080;SDS011;3582;51.506;11.948;2023-02-11T02:57:28;51.85;;;30.42;;
7080;SDS011;3582;51.506;11.948;2023-02-11T03:07:40;52.63;;;32.78;;
7080;SDS011;3582;51.506;11.948;2023-02-11T03:10:10;49.25;;;30.98;;
7080;SDS011;3582;51.506;11.948;2023-02-11T03:12:38;40.45;;;29.50;;
7080;SDS011;3582;51.506;11.948;2023-02-11T03:15:06;51.10;;;31.75;;
7080;SDS011;3582;51.506;11.948;2023-02-11T03:17:33;44.83;;;28.50;;
7080;SDS011;3582;51.506;11.948;2023-02-11T03:19:59;47.10;;;32.13;;
7080;SDS011;3582;51.506;11.948;2023-02-11T03:22:29;40.03;;;28.73;;
7080;SDS011;3582;51.506;11.948;2023-02-11T03:24:57;50.78;;;31.92;;
7080;SDS011;3582;51.506;11.948;2023-02-11T03:27:25;46.92;;;30.88;;
7080;SDS011;3582;51.506;11.948;2023-02-11T03:29:58;45.95;;;28.80;;
7080;SDS011;3582;51.506;11.948;2023-02-11T03:32:26;45.67;;;29.60;;
7080;SDS011;3582;51.506;11.948;2023-02-11T03:37:34;44.77;;;29.67;;
7080;SDS011;3582;51.506;11.948;2023-02-11T03:42:31;47.83;;;29.85;;
7080;SDS011;3582;51.506;11.948;2023-02-11T03:45:02;41.70;;;28.90;;
7080;SDS011;3582;51.506;11.948;2023-02-11T03:47:29;53.22;;;31.77;;
7080;SDS011;3582;51.506;11.948;2023-02-11T03:49:56;42.90;;;29.17;;
7080;SDS011;3582;51.506;11.948;2023-02-11T03:52:24;51.45;;;32.30;;
7080;SDS011;3582;51.506;11.948;2023-02-11T03:54:52;43.55;;;29.27;;
7080;SDS011;3582;51.506;11.948;2023-02-11T03:57:18;50.42;;;30.83;;
7080;SDS011;3582;51.506;11.948;2023-02-11T03:59:52;52.22;;;31.58;;
7080;SDS011;3582;51.506;11.948;2023-02-11T04:02:18;43.80;;;29.23;;
7080;SDS011;3582;51.506;11.948;2023-02-11T04:04:44;49.78;;;30.15;;
7080;SDS011;3582;51.506;11.948;2023-02-11T04:07:11;58.28;;;32.08;;
7080;SDS011;3582;51.506;11.948;2023-02-11T04:09:37;48.33;;;28.70;;
7080;SDS011;3582;51.506;11.948;2023-02-11T04:12:03;44.10;;;28.43;;
7080;SDS011;3582;51.506;11.948;2023-02-11T04:14:29;47.85;;;29.83;;
7080;SDS011;3582;51.506;11.948;2023-02-11T04:16:55;41.30;;;28.83;;
7080;SDS011;3582;51.506;11.948;2023-02-11T04:19:21;44.10;;;29.40;;
7080;SDS011;3582;51.506;11.948;2023-02-11T04:21:47;44.40;;;28.27;;
7080;SDS011;3582;51.506;11.948;2023-02-11T04:24:12;50.70;;;32.03;;
7080;SDS011;3582;51.506;11.948;2023-02-11T04:26:38;44.53;;;30.50;;
7080;SDS011;3582;51.506;11.948;2023-02-11T04:29:04;42.53;;;29.13;;
7080;SDS011;3582;51.506;11.948;2023-02-11T04:31:30;45.13;;;30.27;;
7080;SDS011;3582;51.506;11.948;2023-02-11T04:33:56;47.43;;;30.00;;
7080;SDS011;3582;51.506;11.948;2023-02-11T04:36:22;48.42;;;30.52;;
7080;SDS011;3582;51.506;11.948;2023-02-11T04:38:48;43.90;;;26.97;;
7080;SDS011;3582;51.506;11.948;2023-02-11T04:41:14;46.97;;;29.97;;
7080;SDS011;3582;51.506;11.948;2023-02-11T04:43:40;43.43;;;29.97;;
7080;SDS011;3582;51.506;11.948;2023-02-11T04:46:06;45.70;;;29.97;;
7080;SDS011;3582;51.506;11.948;2023-02-11T04:48:32;47.27;;;32.20;;
7080;SDS011;3582;51.506;11.948;2023-02-11T04:50:59;42.17;;;30.67;;
7080;SDS011;3582;51.506;11.948;2023-02-11T04:53:25;46.63;;;31.20;;
7080;SDS011;3582;51.506;11.948;2023-02-11T04:55:51;50.57;;;30.27;;
7080;SDS011;3582;51.506;11.948;2023-02-11T04:58:17;44.07;;;28.87;;
7080;SDS011;3582;51.506;11.948;2023-02-11T05:00:43;47.70;;;30.58;;
7080;SDS011;3582;51.506;11.948;2023-02-11T05:03:09;53.60;;;31.87;;
7080;SDS011;3582;51.506;11.948;2023-02-11T05:05:38;50.08;;;32.47;;
7080;SDS011;3582;51.506;11.948;2023-02-11T05:08:05;46.42;;;31.60;;
7080;SDS011;3582;51.506;11.948;2023-02-11T05:10:31;50.85;;;31.15;;
7080;SDS011;3582;51.506;11.948;2023-02-11T05:12:57;45.83;;;30.25;;
7080;SDS011;3582;51.506;11.948;2023-02-11T05:15:23;47.93;;;30.53;;
7080;SDS011;3582;51.506;11.948;2023-02-11T05:17:49;41.90;;;30.20;;
7080;SDS011;3582;51.506;11.948;2023-02-11T05:20:14;54.40;;;33.67;;
7080;SDS011;3582;51.506;11.948;2023-02-11T05:22:40;43.13;;;29.87;;
7080;SDS011;3582;51.506;11.948;2023-02-11T05:25:06;59.13;;;35.20;;
7080;SDS011;3582;51.506;11.948;2023-02-11T05:27:32;44.20;;;32.35;;
7080;SDS011;3582;51.506;11.948;2023-02-11T05:29:58;51.38;;;32.40;;
7080;SDS011;3582;51.506;11.948;2023-02-11T05:32:24;48.77;;;31.13;;
7080;SDS011;3582;51.506;11.948;2023-02-11T05:34:50;53.17;;;31.43;;
7080;SDS011;3582;51.506;11.948;2023-02-11T05:37:16;51.17;;;29.80;;
7080;SDS011;3582;51.506;11.948;2023-02-11T05:39:42;46.28;;;30.30;;
7080;SDS011;3582;51.506;11.948;2023-02-11T05:42:08;46.43;;;29.50;;
7080;SDS011;3582;51.506;11.948;2023-02-11T05:44:34;53.70;;;33.07;;
7080;SDS011;3582;51.506;11.948;2023-02-11T05:47:00;54.83;;;31.57;;
7080;SDS011;3582;51.506;11.948;2023-02-11T05:49:26;52.58;;;31.27;;
7080;SDS011;3582;51.506;11.948;2023-02-11T05:51:52;48.65;;;30.10;;
7080;SDS011;3582;51.506;11.948;2023-02-11T05:54:18;52.63;;;32.77;;
7080;SDS011;3582;51.506;11.948;2023-02-11T05:56:44;48.87;;;31.63;;
7080;SDS011;3582;51.506;11.948;2023-02-11T05:59:11;43.33;;;30.53;;
7080;SDS011;3582;51.506;11.948;2023-02-11T06:01:37;47.40;;;30.27;;
7080;SDS011;3582;51.506;11.948;2023-02-11T06:04:03;47.23;;;31.50;;
7080;SDS011;3582;51.506;11.948;2023-02-11T06:06:29;48.90;;;33.10;;
7080;SDS011;3582;51.506;11.948;2023-02-11T06:08:55;49.60;;;32.78;;
7080;SDS011;3582;51.506;11.948;2023-02-11T06:11:21;53.13;;;30.65;;
7080;SDS011;3582;51.506;11.948;2023-02-11T06:13:47;49.43;;;30.67;;
7080;SDS011;3582;51.506;11.948;2023-02-11T06:16:13;46.67;;;29.17;;
7080;SDS011;3582;51.506;11.948;2023-02-11T06:18:39;43.70;;;28.60;;
7080;SDS011;3582;51.506;11.948;2023-02-11T06:21:06;45.13;;;29.10;;
7080;SDS011;3582;51.506;11.948;2023-02-11T06:23:32;52.30;;;33.50;;
7080;SDS011;3582;51.506;11.948;2023-02-11T06:26:05;47.33;;;29.93;;
7080;SDS011;3582;51.506;11.948;2023-02-11T06:28:31;45.15;;;32.60;;
7080;SDS011;3582;51.506;11.948;2023-02-11T06:30:57;46.47;;;30.40;;
7080;SDS011;3582;51.506;11.948;2023-02-11T06:33:23;56.00;;;31.98;;
7080;SDS011;3582;51.506;11.948;2023-02-11T06:35:49;51.50;;;32.58;;
7080;SDS011;3582;51.506;11.948;2023-02-11T06:38:15;45.50;;;28.80;;
7080;SDS011;3582;51.506;11.948;2023-02-11T06:40:45;44.43;;;29.60;;
7080;SDS011;3582;51.506;11.948;2023-02-11T06:43:12;49.88;;;30.95;;
7080;SDS011;3582;51.506;11.948;2023-02-11T06:45:38;50.70;;;29.90;;
7080;SDS011;3582;51.506;11.948;2023-02-11T06:48:03;48.83;;;31.00;;
7080;SDS011;3582;51.506;11.948;2023-02-11T06:50:29;53.10;;;30.80;;
7080;SDS011;3582;51.506;11.948;2023-02-11T06:52:57;43.40;;;29.40;;
7080;SDS011;3582;51.506;11.948;2023-02-11T06:55:23;46.10;;;29.98;;
7080;SDS011;3582;51.506;11.948;2023-02-11T06:57:49;44.00;;;28.40;;
7080;SDS011;3582;51.506;11.948;2023-02-11T07:00:15;44.60;;;29.03;;
7080;SDS011;3582;51.506;11.948;2023-02-11T07:02:41;52.88;;;32.33;;
7080;SDS011;3582;51.506;11.948;2023-02-11T07:05:07;45.07;;;29.13;;
7080;SDS011;3582;51.506;11.948;2023-02-11T07:07:34;49.05;;;30.38;;
7080;SDS011;3582;51.506;11.948;2023-02-11T07:10:00;48.67;;;30.08;;
7080;SDS011;3582;51.506;11.948;2023-02-11T07:12:30;46.05;;;29.40;;
7080;SDS011;3582;51.506;11.948;2023-02-11T07:14:56;43.60;;;30.35;;
7080;SDS011;3582;51.506;11.948;2023-02-11T07:17:22;54.13;;;32.13;;
7080;SDS011;3582;51.506;11.948;2023-02-11T07:19:48;52.05;;;29.83;;
7080;SDS011;3582;51.506;11.948;2023-02-11T07:22:14;43.90;;;29.67;;
7080;SDS011;3582;51.506;11.948;2023-02-11T07:24:40;46.07;;;30.73;;
7080;SDS011;3582;51.506;11.948;2023-02-11T07:27:06;52.37;;;29.90;;
7080;SDS011;3582;51.506;11.948;2023-02-11T07:29:32;50.50;;;30.50;;
7080;SDS011;3582;51.506;11.948;2023-02-11T07:31:58;54.60;;;31.15;;
7080;SDS011;3582;51.506;11.948;2023-02-11T07:34:26;46.45;;;30.08;;
7080;SDS011;3582;51.506;11.948;2023-02-11T07:36:52;44.77;;;29.67;;
7080;SDS011;3582;51.506;11.948;2023-02-11T07:39:18;42.43;;;27.03;;
7080;SDS011;3582;51.506;11.948;2023-02-11T07:41:45;44.90;;;29.77;;
7080;SDS011;3582;51.506;11.948;2023-02-11T07:44:13;47.45;;;29.17;;
7080;SDS011;3582;51.506;11.948;2023-02-11T07:46:39;48.40;;;28.00;;
7080;SDS011;3582;51.506;11.948;2023-02-11T07:49:09;52.33;;;29.63;;
7080;SDS011;3582;51.506;11.948;2023-02-11T07:51:35;44.92;;;26.63;;
7080;SDS011;3582;51.506;11.948;2023-02-11T07:54:01;50.23;;;30.17;;
7080;SDS011;3582;51.506;11.948;2023-02-11T07:56:27;43.97;;;27.77;;
7080;SDS011;3582;51.506;11.948;2023-02-11T07:58:54;36.83;;;26.63;;
7080;SDS011;3582;51.506;11.948;2023-02-11T08:01:23;45.72;;;28.13;;
7080;SDS011;3582;51.506;11.948;2023-02-11T08:03:52;41.47;;;26.25;;
7080;SDS011;3582;51.506;11.948;2023-02-11T08:06:19;44.45;;;28.23;;
7080;SDS011;3582;51.506;11.948;2023-02-11T08:08:45;43.50;;;27.50;;
7080;SDS011;3582;51.506;11.948;2023-02-11T08:11:12;41.38;;;27.25;;
7080;SDS011;3582;51.506;11.948;2023-02-11T08:13:38;46.38;;;27.13;;
7080;SDS011;3582;51.506;11.948;2023-02-11T08:16:04;47.83;;;29.20;;
7080;SDS011;3582;51.506;11.948;2023-02-11T08:18:31;42.35;;;28.52;;
7080;SDS011;3582;51.506;11.948;2023-02-11T08:21:07;47.80;;;31.45;;
7080;SDS011;3582;51.506;11.948;2023-02-11T08:23:36;46.45;;;27.80;;
7080;SDS011;3582;51.506;11.948;2023-02-11T08:26:03;45.70;;;29.13;;
7080;SDS011;3582;51.506;11.948;2023-02-11T08:28:29;46.42;;;29.25;;
7080;SDS011;3582;51.506;11.948;2023-02-11T08:30:55;46.23;;;27.63;;
7080;SDS011;3582;51.506;11.948;2023-02-11T08:33:21;42.10;;;26.07;;
7080;SDS011;3582;51.506;11.948;2023-02-11T08:35:47;40.10;;;25.77;;
7080;SDS011;3582;51.506;11.948;2023-02-11T08:38:13;45.57;;;27.83;;
7080;SDS011;3582;51.506;11.948;2023-02-11T08:40:39;37.07;;;26.37;;
7080;SDS011;3582;51.506;11.948;2023-02-11T08:43:05;43.60;;;28.63;;
7080;SDS011;3582;51.506;11.948;2023-02-11T08:45:31;39.03;;;27.20;;
7080;SDS011;3582;51.506;11.948;2023-02-11T08:47:57;39.67;;;27.90;;
7080;SDS011;3582;51.506;11.948;2023-02-11T08:50:23;40.07;;;27.70;;
7080;SDS011;3582;51.506;11.948;2023-02-11T08:52:50;42.45;;;26.17;;
7080;SDS011;3582;51.506;11.948;2023-02-11T08:55:16;45.03;;;29.73;;
7080;SDS011;3582;51.506;11.948;2023-02-11T08:57:42;39.57;;;28.03;;
7080;SDS011;3582;51.506;11.948;2023-02-11T09:00:09;43.67;;;27.90;;
7080;SDS011;3582;51.506;11.948;2023-02-11T09:02:35;38.67;;;26.38;;
7080;SDS011;3582;51.506;11.948;2023-02-11T09:05:01;41.63;;;27.43;;
7080;SDS011;3582;51.506;11.948;2023-02-11T09:07:27;40.87;;;27.20;;
7080;SDS011;3582;51.506;11.948;2023-02-11T09:09:53;39.70;;;26.50;;
7080;SDS011;3582;51.506;11.948;2023-02-11T09:12:19;41.87;;;28.30;;
7080;SDS011;3582;51.506;11.948;2023-02-11T09:14:45;43.40;;;26.53;;
7080;SDS011;3582;51.506;11.948;2023-02-11T09:17:11;47.00;;;29.77;;
7080;SDS011;3582;51.506;11.948;2023-02-11T09:19:37;42.47;;;28.30;;
7080;SDS011;3582;51.506;11.948;2023-02-11T09:22:03;44.13;;;27.77;;
7080;SDS011;3582;51.506;11.948;2023-02-11T09:24:29;48.00;;;27.90;;
7080;SDS011;3582;51.506;11.948;2023-02-11T09:26:55;46.40;;;27.80;;
7080;SDS011;3582;51.506;11.948;2023-02-11T09:29:20;43.03;;;27.60;;
7080;SDS011;3582;51.506;11.948;2023-02-11T09:31:46;41.10;;;27.03;;
7080;SDS011;3582;51.506;11.948;2023-02-11T09:34:14;40.60;;;27.63;;
7080;SDS011;3582;51.506;11.948;2023-02-11T09:36:40;43.50;;;28.73;;
7080;SDS011;3582;51.506;11.948;2023-02-11T09:39:08;39.13;;;26.90;;
7080;SDS011;3582;51.506;11.948;2023-02-11T09:41:40;40.17;;;27.50;;
7080;SDS011;3582;51.506;11.948;2023-02-11T09:44:07;46.42;;;27.92;;
7080;SDS011;3582;51.506;11.948;2023-02-11T09:46:39;47.58;;;28.35;;
7080;SDS011;3582;51.506;11.948;2023-02-11T09:49:05;40.35;;;26.20;;
7080;SDS011;3582;51.506;11.948;2023-02-11T09:51:43;47.97;;;27.90;;
7080;SDS011;3582;51.506;11.948;2023-02-11T09:54:57;40.10;;;27.92;;
7080;SDS011;3582;51.506;11.948;2023-02-11T09:56:57;42.90;;;27.88;;
7080;SDS011;3582;51.506;11.948;2023-02-11T09:59:23;45.13;;;28.80;;
7080;SDS011;3582;51.506;11.948;2023-02-11T10:01:49;46.10;;;28.00;;
7080;SDS011;3582;51.506;11.948;2023-02-11T10:04:29;37.95;;;27.73;;
7080;SDS011;3582;51.506;11.948;2023-02-11T10:12:16;37.08;;;26.60;;
7080;SDS011;3582;51.506;11.948;2023-02-11T10:22:19;47.00;;;31.47;;
7080;SDS011;3582;51.506;11.948;2023-02-11T10:24:51;46.08;;;27.40;;
7080;SDS011;3582;51.506;11.948;2023-02-11T10:27:19;44.28;;;27.63;;
7080;SDS011;3582;51.506;11.948;2023-02-11T10:29:52;39.75;;;28.33;;
7080;SDS011;3582;51.506;11.948;2023-02-11T10:32:26;46.20;;;26.77;;
7080;SDS011;3582;51.506;11.948;2023-02-11T10:34:55;38.55;;;26.85;;
7080;SDS011;3582;51.506;11.948;2023-02-11T10:37:23;44.88;;;27.50;;
7080;SDS011;3582;51.506;11.948;2023-02-11T10:39:49;54.40;;;30.00;;
7080;SDS011;3582;51.506;11.948;2023-02-11T10:42:15;50.23;;;27.50;;
7080;SDS011;3582;51.506;11.948;2023-02-11T10:44:52;40.27;;;24.97;;
7080;SDS011;3582;51.506;11.948;2023-02-11T10:47:21;36.03;;;24.15;;
7080;SDS011;3582;51.506;11.948;2023-02-11T10:49:48;43.17;;;29.17;;
7080;SDS011;3582;51.506;11.948;2023-02-11T10:52:17;39.20;;;26.73;;
7080;SDS011;3582;51.506;11.948;2023-02-11T10:54:56;43.05;;;26.13;;
7080;SDS011;3582;51.506;11.948;2023-02-11T10:57:22;38.78;;;25.73;;
7080;SDS011;3582;51.506;11.948;2023-02-11T10:59:50;41.85;;;25.40;;
7080;SDS011;3582;51.506;11.948;2023-02-11T11:04:47;42.40;;;27.10;;
7080;SDS011;3582;51.506;11.948;2023-02-11T11:09:56;37.88;;;25.25;;
7080;SDS011;3582;51.506;11.948;2023-02-11T11:12:27;41.85;;;26.48;;
7080;SDS011;3582;51.506;11.948;2023-02-11T11:14:55;37.13;;;24.55;;
7080;SDS011;3582;51.506;11.948;2023-02-11T11:17:21;42.45;;;27.50;;
7080;SDS011;3582;51.506;11.948;2023-02-11T11:19:47;40.20;;;28.00;;
7080;SDS011;3582;51.506;11.948;2023-02-11T11:22:20;35.40;;;25.93;;
7080;SDS011;3582;51.506;11.948;2023-02-11T11:24:46;41.58;;;26.95;;
7080;SDS011;3582;51.506;11.948;2023-02-11T11:27:18;41.47;;;25.73;;
7080;SDS011;3582;51.506;11.948;2023-02-11T11:29:46;37.88;;;25.20;;
7080;SDS011;3582;51.506;11.948;2023-02-11T11:32:15;40.38;;;24.75;;
7080;SDS011;3582;51.506;11.948;2023-02-11T11:34:47;44.20;;;24.95;;
7080;SDS011;3582;51.506;11.948;2023-02-11T11:37:26;36.13;;;25.55;;
7080;SDS011;3582;51.506;11.948;2023-02-11T11:39:57;46.40;;;29.02;;
7080;SDS011;3582;51.506;11.948;2023-02-11T11:42:30;39.63;;;25.35;;
7080;SDS011;3582;51.506;11.948;2023-02-11T11:44:58;38.33;;;23.75;;
7080;SDS011;3582;51.506;11.948;2023-02-11T11:47:26;44.72;;;25.55;;
7080;SDS011;3582;51.506;11.948;2023-02-11T11:52:34;37.33;;;25.30;;
7080;SDS011;3582;51.506;11.948;2023-02-11T11:55:21;36.10;;;26.27;;
7080;SDS011;3582;51.506;11.948;2023-02-11T11:57:49;37.05;;;25.52;;
7080;SDS011;3582;51.506;11.948;2023-02-11T12:00:19;38.13;;;25.40;;
7080;SDS011;3582;51.506;11.948;2023-02-11T12:25:55;31.02;;;21.38;;
7080;SDS011;3582;51.506;11.948;2023-02-11T12:28:43;38.22;;;25.92;;
7080;SDS011;3582;51.506;11.948;2023-02-11T12:41:44;33.47;;;23.13;;
7080;SDS011;3582;51.506;11.948;2023-02-11T12:47:19;36.40;;;23.87;;
7080;SDS011;3582;51.506;11.948;2023-02-11T12:52:49;31.77;;;21.42;;
7080;SDS011;3582;51.506;11.948;2023-02-11T12:55:19;36.10;;;24.27;;
7080;SDS011;3582;51.506;11.948;2023-02-11T12:57:46;34.53;;;21.90;;
7080;SDS011;3582;51.506;11.948;2023-02-11T13:00:22;36.28;;;22.27;;
7080;SDS011;3582;51.506;11.948;2023-02-11T13:05:38;36.95;;;23.33;;
7080;SDS011;3582;51.506;11.948;2023-02-11T13:08:10;35.70;;;23.05;;
7080;SDS011;3582;51.506;11.948;2023-02-11T13:10:39;33.20;;;20.73;;
7080;SDS011;3582;51.506;11.948;2023-02-11T13:13:11;32.17;;;20.85;;
7080;SDS011;3582;51.506;11.948;2023-02-11T13:15:42;36.75;;;22.88;;
7080;SDS011;3582;51.506;11.948;2023-02-11T13:20:53;28.88;;;20.75;;
7080;SDS011;3582;51.506;11.948;2023-02-11T13:26:08;29.95;;;23.02;;
7080;SDS011;3582;51.506;11.948;2023-02-11T13:31:37;31.35;;;21.73;;
7080;SDS011;3582;51.506;11.948;2023-02-11T13:34:03;28.90;;;19.67;;
7080;SDS011;3582;51.506;11.948;2023-02-11T13:36:52;30.83;;;22.17;;
7080;SDS011;3582;51.506;11.948;2023-02-11T13:39:19;31.02;;;21.25;;
7080;SDS011;3582;51.506;11.948;2023-02-11T13:41:45;32.67;;;21.45;;
7080;SDS011;3582;51.506;11.948;2023-02-11T13:46:50;35.78;;;22.83;;
7080;SDS011;3582;51.506;11.948;2023-02-11T13:51:53;34.42;;;22.10;;
7080;SDS011;3582;51.506;11.948;2023-02-11T13:54:21;34.85;;;22.27;;
7080;SDS011;3582;51.506;11.948;2023-02-11T13:57:14;33.25;;;21.33;;
7080;SDS011;3582;51.506;11.948;2023-02-11T14:02:04;29.93;;;20.60;;
7080;SDS011;3582;51.506;11.948;2023-02-11T14:10:50;30.95;;;20.13;;
7080;SDS011;3582;51.506;11.948;2023-02-11T14:21:21;31.38;;;21.35;;
7080;SDS011;3582;51.506;11.948;2023-02-11T14:23:49;30.60;;;21.17;;
7080;SDS011;3582;51.506;11.948;2023-02-11T14:28:53;27.80;;;21.77;;
7080;SDS011;3582;51.506;11.948;2023-02-11T14:31:25;23.77;;;19.73;;
7080;SDS011;3582;51.506;11.948;2023-02-11T14:33:58;33.10;;;24.63;;
7080;SDS011;3582;51.506;11.948;2023-02-11T14:36:33;31.30;;;20.85;;
7080;SDS011;3582;51.506;11.948;2023-02-11T14:41:52;34.90;;;21.67;;
7080;SDS011;3582;51.506;11.948;2023-02-11T14:44:19;32.63;;;22.77;;
7080;SDS011;3582;51.506;11.948;2023-02-11T14:46:46;31.73;;;21.73;;
7080;SDS011;3582;51.506;11.948;2023-02-11T14:49:26;30.35;;;19.70;;
7080;SDS011;3582;51.506;11.948;2023-02-11T14:51:54;31.60;;;22.52;;
7080;SDS011;3582;51.506;11.948;2023-02-11T14:54:22;27.73;;;20.23;;
7080;SDS011;3582;51.506;11.948;2023-02-11T14:57:05;29.77;;;21.17;;
7080;SDS011;3582;51.506;11.948;2023-02-11T14:59:31;29.67;;;21.40;;
7080;SDS011;3582;51.506;11.948;2023-02-11T15:01:57;31.17;;;23.00;;
7080;SDS011;3582;51.506;11.948;2023-02-11T15:04:27;31.63;;;21.80;;
7080;SDS011;3582;51.506;11.948;2023-02-11T15:06:54;33.67;;;20.55;;
7080;SDS011;3582;51.506;11.948;2023-02-11T15:09:21;28.17;;;19.77;;
7080;SDS011;3582;51.506;11.948;2023-02-11T15:11:51;28.92;;;19.77;;
7080;SDS011;3582;51.506;11.948;2023-02-11T15:14:25;33.97;;;22.40;;
7080;SDS011;3582;51.506;11.948;2023-02-11T15:16:52;29.35;;;21.92;;
7080;SDS011;3582;51.506;11.948;2023-02-11T15:19:20;25.30;;;19.13;;
7080;SDS011;3582;51.506;11.948;2023-02-11T15:21:47;29.13;;;20.27;;
7080;SDS011;3582;51.506;11.948;2023-02-11T15:24:21;27.30;;;19.20;;
7080;SDS011;3582;51.506;11.948;2023-02-11T15:27:01;32.35;;;22.17;;
7080;SDS011;3582;51.506;11.948;2023-02-11T15:29:34;33.45;;;20.05;;
7080;SDS011;3582;51.506;11.948;2023-02-11T15:35:06;27.67;;;20.27;;
7080;SDS011;3582;51.506;11.948;2023-02-11T15:37:33;30.58;;;21.00;;
7080;SDS011;3582;51.506;11.948;2023-02-11T15:40:09;32.83;;;21.77;;
7080;SDS011;3582;51.506;11.948;2023-02-11T15:42:36;27.98;;;19.48;;
7080;SDS011;3582;51.506;11.948;2023-02-11T15:47:50;31.85;;;21.13;;
7080;SDS011;3582;51.506;11.948;2023-02-11T15:52:45;32.78;;;21.13;;
7080;SDS011;3582;51.506;11.948;2023-02-11T15:55:12;34.03;;;21.15;;
7080;SDS011;3582;51.506;11.948;2023-02-11T15:57:44;30.75;;;23.17;;
7080;SDS011;3582;51.506;11.948;2023-02-11T16:00:15;37.03;;;22.45;;
7080;SDS011;3582;51.506;11.948;2023-02-11T16:02:43;32.85;;;21.67;;
7080;SDS011;3582;51.506;11.948;2023-02-11T16:07:54;34.08;;;23.15;;
7080;SDS011;3582;51.506;11.948;2023-02-11T16:10:25;31.38;;;21.95;;
7080;SDS011;3582;51.506;11.948;2023-02-11T16:12:58;33.10;;;21.00;;
7080;SDS011;3582;51.506;11.948;2023-02-11T16:15:30;31.75;;;23.88;;
7080;SDS011;3582;51.506;11.948;2023-02-11T16:17:56;29.30;;;20.60;;
7080;SDS011;3582;51.506;11.948;2023-02-11T16:20:22;33.83;;;22.95;;
7080;SDS011;3582;51.506;11.948;2023-02-11T16:22:48;30.00;;;20.40;;
7080;SDS011;3582;51.506;11.948;2023-02-11T16:25:17;33.50;;;22.77;;
7080;SDS011;3582;51.506;11.948;2023-02-11T16:27:46;38.28;;;24.80;;
7080;SDS011;3582;51.506;11.948;2023-02-11T16:30:26;62.95;;;31.25;;
7080;SDS011;3582;51.506;11.948;2023-02-11T16:32:53;34.95;;;21.10;;
7080;SDS011;3582;51.506;11.948;2023-02-11T16:35:19;32.75;;;21.90;;
7080;SDS011;3582;51.506;11.948;2023-02-11T16:37:45;36.57;;;22.73;;
7080;SDS011;3582;51.506;11.948;2023-02-11T16:40:11;36.03;;;25.27;;
7080;SDS011;3582;51.506;11.948;2023-02-11T16:42:38;39.80;;;23.45;;
7080;SDS011;3582;51.506;11.948;2023-02-11T16:45:04;33.10;;;22.97;;
7080;SDS011;3582;51.506;11.948;2023-02-11T16:47:30;43.05;;;23.55;;
7080;SDS011;3582;51.506;11.948;2023-02-11T16:49:56;32.22;;;21.35;;
7080;SDS011;3582;51.506;11.948;2023-02-11T16:52:23;32.85;;;22.23;;
7080;SDS011;3582;51.506;11.948;2023-02-11T16:54:50;35.67;;;21.70;;
7080;SDS011;3582;51.506;11.948;2023-02-11T16:57:17;34.27;;;22.07;;
7080;SDS011;3582;51.506;11.948;2023-02-11T16:59:44;37.08;;;23.60;;
7080;SDS011;3582;51.506;11.948;2023-02-11T17:04:45;34.38;;;22.45;;